sensor_id;sensor_type;location;lat;lon;timestamp;P1;durP1;ratioP1;P2;durP2;ratioP2
4377;SDS011;2203;53.686;9.994;2023-07-24T00:02:15;5.30;;;4.27;;
4377;SDS011;2203;53.686;9.994;2023-07-24T00:04:40;7.93;;;4.33;;
4377;SDS011;2203;53.686;9.994;2023-07-24T00:07:06;10.50;;;4.40;;
4377;SDS011;2203;53.686;9.994;2023-07-24T00:09:31;4.30;;;3.90;;
4377;SDS011;2203;53.686;9.994;2023-07-24T00:11:57;6.13;;;4.10;;
4377;SDS011;2203;53.686;9.994;2023-07-24T00:14:22;9.57;;;4.00;;
4377;SDS011;2203;53.686;9.994;2023-07-24T00:16:48;4.17;;;3.77;;
4377;SDS011;2203;53.686;9.994;2023-07-24T00:19:13;5.47;;;3.33;;
4377;SDS011;2203;53.686;9.994;2023-07-24T00:21:39;4.50;;;4.03;;
4377;SDS011;2203;53.686;9.994;2023-07-24T00:24:04;8.83;;;4.23;;
4377;SDS011;2203;53.686;9.994;2023-07-24T00:26:30;8.23;;;4.10;;
4377;SDS011;2203;53.686;9.994;2023-07-24T00:28:55;6.23;;;3.90;;
4377;SDS011;2203;53.686;9.994;2023-07-24T00:31:20;5.43;;;3.80;;
4377;SDS011;2203;53.686;9.994;2023-07-24T00:33:46;4.90;;;4.10;;
4377;SDS011;2203;53.686;9.994;2023-07-24T00:36:11;10.40;;;4.20;;
4377;SDS011;2203;53.686;9.994;2023-07-24T00:38:36;6.17;;;3.60;;
4377;SDS011;2203;53.686;9.994;2023-07-24T00:41:02;5.70;;;3.90;;
4377;SDS011;2203;53.686;9.994;2023-07-24T00:43:27;6.80;;;4.27;;
4377;SDS011;2203;53.686;9.994;2023-07-24T00:45:53;4.37;;;3.77;;
4377;SDS011;2203;53.686;9.994;2023-07-24T00:48:19;8.43;;;3.60;;
4377;SDS011;2203;53.686;9.994;2023-07-24T00:50:44;8.07;;;3.83;;
4377;SDS011;2203;53.686;9.994;2023-07-24T00:53:11;11.70;;;4.83;;
4377;SDS011;2203;53.686;9.994;2023-07-24T00:55:37;7.40;;;4.60;;
4377;SDS011;2203;53.686;9.994;2023-07-24T00:58:03;7.83;;;4.33;;
4377;SDS011;2203;53.686;9.994;2023-07-24T01:00:29;6.53;;;4.43;;
4377;SDS011;2203;53.686;9.994;2023-07-24T01:02:54;7.17;;;4.13;;
4377;SDS011;2203;53.686;9.994;2023-07-24T01:05:20;6.97;;;4.60;;
4377;SDS011;2203;53.686;9.994;2023-07-24T01:07:47;7.67;;;4.40;;
4377;SDS011;2203;53.686;9.994;2023-07-24T01:10:13;11.63;;;4.30;;
4377;SDS011;2203;53.686;9.994;2023-07-24T01:15:32;9.63;;;3.77;;
4377;SDS011;2203;53.686;9.994;2023-07-24T01:18:00;11.80;;;4.83;;
4377;SDS011;2203;53.686;9.994;2023-07-24T01:20:29;9.03;;;4.03;;
4377;SDS011;2203;53.686;9.994;2023-07-24T01:25:35;16.03;;;5.30;;
4377;SDS011;2203;53.686;9.994;2023-07-24T01:28:16;7.40;;;4.90;;
4377;SDS011;2203;53.686;9.994;2023-07-24T01:30:42;8.73;;;5.00;;
4377;SDS011;2203;53.686;9.994;2023-07-24T01:33:07;9.90;;;6.00;;
4377;SDS011;2203;53.686;9.994;2023-07-24T01:35:33;9.40;;;5.50;;
4377;SDS011;2203;53.686;9.994;2023-07-24T01:37:58;14.40;;;5.90;;
4377;SDS011;2203;53.686;9.994;2023-07-24T01:40:25;8.03;;;6.00;;
4377;SDS011;2203;53.686;9.994;2023-07-24T01:42:50;6.70;;;5.43;;
4377;SDS011;2203;53.686;9.994;2023-07-24T01:45:17;7.23;;;5.30;;
4377;SDS011;2203;53.686;9.994;2023-07-24T01:47:42;7.30;;;5.43;;
4377;SDS011;2203;53.686;9.994;2023-07-24T01:50:07;9.50;;;6.13;;
4377;SDS011;2203;53.686;9.994;2023-07-24T01:52:33;7.43;;;5.67;;
4377;SDS011;2203;53.686;9.994;2023-07-24T01:54:58;7.27;;;5.53;;
4377;SDS011;2203;53.686;9.994;2023-07-24T01:57:24;9.03;;;5.67;;
4377;SDS011;2203;53.686;9.994;2023-07-24T01:59:49;7.23;;;5.53;;
4377;SDS011;2203;53.686;9.994;2023-07-24T02:02:14;9.30;;;5.70;;
4377;SDS011;2203;53.686;9.994;2023-07-24T02:04:40;6.10;;;4.83;;
4377;SDS011;2203;53.686;9.994;2023-07-24T02:07:05;12.30;;;4.80;;
4377;SDS011;2203;53.686;9.994;2023-07-24T02:09:31;12.37;;;5.27;;
4377;SDS011;2203;53.686;9.994;2023-07-24T02:11:56;6.07;;;4.53;;
4377;SDS011;2203;53.686;9.994;2023-07-24T02:14:21;5.30;;;4.43;;
4377;SDS011;2203;53.686;9.994;2023-07-24T02:16:47;8.90;;;5.17;;
4377;SDS011;2203;53.686;9.994;2023-07-24T02:19:12;5.33;;;4.10;;
4377;SDS011;2203;53.686;9.994;2023-07-24T02:21:38;7.83;;;4.90;;
4377;SDS011;2203;53.686;9.994;2023-07-24T02:24:05;8.23;;;5.00;;
4377;SDS011;2203;53.686;9.994;2023-07-24T02:26:31;11.10;;;5.07;;
4377;SDS011;2203;53.686;9.994;2023-07-24T02:28:56;8.90;;;4.37;;
4377;SDS011;2203;53.686;9.994;2023-07-24T02:31:21;7.90;;;4.90;;
4377;SDS011;2203;53.686;9.994;2023-07-24T02:33:47;9.17;;;5.23;;
4377;SDS011;2203;53.686;9.994;2023-07-24T02:36:13;13.63;;;5.73;;
4377;SDS011;2203;53.686;9.994;2023-07-24T02:38:38;11.83;;;5.23;;
4377;SDS011;2203;53.686;9.994;2023-07-24T02:41:04;9.20;;;5.63;;
4377;SDS011;2203;53.686;9.994;2023-07-24T02:43:29;10.80;;;5.50;;
4377;SDS011;2203;53.686;9.994;2023-07-24T02:45:54;9.40;;;5.60;;
4377;SDS011;2203;53.686;9.994;2023-07-24T02:48:20;12.17;;;6.30;;
4377;SDS011;2203;53.686;9.994;2023-07-24T02:50:47;8.57;;;5.80;;
4377;SDS011;2203;53.686;9.994;2023-07-24T02:53:13;8.03;;;5.50;;
4377;SDS011;2203;53.686;9.994;2023-07-24T02:55:41;9.23;;;6.20;;
4377;SDS011;2203;53.686;9.994;2023-07-24T02:58:08;8.77;;;5.97;;
4377;SDS011;2203;53.686;9.994;2023-07-24T03:00:33;11.33;;;6.80;;
4377;SDS011;2203;53.686;9.994;2023-07-24T03:02:59;12.70;;;7.73;;
4377;SDS011;2203;53.686;9.994;2023-07-24T03:05:24;10.90;;;8.30;;
4377;SDS011;2203;53.686;9.994;2023-07-24T03:07:49;11.77;;;7.60;;
4377;SDS011;2203;53.686;9.994;2023-07-24T03:10:15;9.20;;;6.90;;
4377;SDS011;2203;53.686;9.994;2023-07-24T03:12:40;13.43;;;8.00;;
4377;SDS011;2203;53.686;9.994;2023-07-24T03:15:06;10.70;;;7.90;;
4377;SDS011;2203;53.686;9.994;2023-07-24T03:17:32;9.40;;;7.20;;
4377;SDS011;2203;53.686;9.994;2023-07-24T03:19:58;13.93;;;7.40;;
4377;SDS011;2203;53.686;9.994;2023-07-24T03:22:24;16.40;;;7.60;;
4377;SDS011;2203;53.686;9.994;2023-07-24T03:24:49;12.57;;;7.30;;
4377;SDS011;2203;53.686;9.994;2023-07-24T03:27:14;14.80;;;7.13;;
4377;SDS011;2203;53.686;9.994;2023-07-24T03:29:40;8.30;;;7.10;;
4377;SDS011;2203;53.686;9.994;2023-07-24T03:32:06;11.77;;;7.57;;
4377;SDS011;2203;53.686;9.994;2023-07-24T03:34:32;10.90;;;6.87;;
4377;SDS011;2203;53.686;9.994;2023-07-24T03:36:57;12.23;;;6.60;;
4377;SDS011;2203;53.686;9.994;2023-07-24T03:39:22;16.40;;;5.87;;
4377;SDS011;2203;53.686;9.994;2023-07-24T03:41:48;11.67;;;7.17;;
4377;SDS011;2203;53.686;9.994;2023-07-24T03:44:14;12.23;;;6.80;;
4377;SDS011;2203;53.686;9.994;2023-07-24T03:46:39;8.60;;;5.90;;
4377;SDS011;2203;53.686;9.994;2023-07-24T03:49:04;7.90;;;5.93;;
4377;SDS011;2203;53.686;9.994;2023-07-24T03:51:30;7.53;;;6.67;;
4377;SDS011;2203;53.686;9.994;2023-07-24T03:53:55;11.13;;;6.73;;
4377;SDS011;2203;53.686;9.994;2023-07-24T03:56:20;8.03;;;6.03;;
4377;SDS011;2203;53.686;9.994;2023-07-24T03:58:46;13.60;;;5.73;;
4377;SDS011;2203;53.686;9.994;2023-07-24T04:01:11;9.60;;;6.53;;
4377;SDS011;2203;53.686;9.994;2023-07-24T04:03:37;9.40;;;6.77;;
4377;SDS011;2203;53.686;9.994;2023-07-24T04:06:02;8.10;;;5.63;;
4377;SDS011;2203;53.686;9.994;2023-07-24T04:08:27;11.30;;;6.70;;
4377;SDS011;2203;53.686;9.994;2023-07-24T04:10:53;7.70;;;5.60;;
4377;SDS011;2203;53.686;9.994;2023-07-24T04:13:21;16.30;;;6.70;;
4377;SDS011;2203;53.686;9.994;2023-07-24T04:15:46;10.20;;;6.00;;
4377;SDS011;2203;53.686;9.994;2023-07-24T04:18:12;9.60;;;6.40;;
4377;SDS011;2203;53.686;9.994;2023-07-24T04:20:37;9.73;;;5.33;;
4377;SDS011;2203;53.686;9.994;2023-07-24T04:23:02;10.80;;;6.10;;
4377;SDS011;2203;53.686;9.994;2023-07-24T04:25:28;8.57;;;5.70;;
4377;SDS011;2203;53.686;9.994;2023-07-24T04:27:53;7.43;;;5.53;;
4377;SDS011;2203;53.686;9.994;2023-07-24T04:30:19;9.17;;;6.23;;
4377;SDS011;2203;53.686;9.994;2023-07-24T04:32:44;14.20;;;5.90;;
4377;SDS011;2203;53.686;9.994;2023-07-24T04:35:11;8.03;;;5.57;;
4377;SDS011;2203;53.686;9.994;2023-07-24T04:37:36;10.47;;;6.10;;
4377;SDS011;2203;53.686;9.994;2023-07-24T04:40:04;9.53;;;5.57;;
4377;SDS011;2203;53.686;9.994;2023-07-24T04:42:30;8.90;;;5.93;;
4377;SDS011;2203;53.686;9.994;2023-07-24T04:44:56;8.37;;;5.80;;
4377;SDS011;2203;53.686;9.994;2023-07-24T04:47:21;12.73;;;6.10;;
4377;SDS011;2203;53.686;9.994;2023-07-24T04:49:46;9.70;;;6.00;;
4377;SDS011;2203;53.686;9.994;2023-07-24T04:52:12;8.03;;;5.67;;
4377;SDS011;2203;53.686;9.994;2023-07-24T04:54:37;9.17;;;6.13;;
4377;SDS011;2203;53.686;9.994;2023-07-24T04:57:03;11.47;;;6.23;;
4377;SDS011;2203;53.686;9.994;2023-07-24T04:59:28;8.53;;;5.50;;
4377;SDS011;2203;53.686;9.994;2023-07-24T05:01:54;5.97;;;4.90;;
4377;SDS011;2203;53.686;9.994;2023-07-24T05:04:21;11.63;;;6.60;;
4377;SDS011;2203;53.686;9.994;2023-07-24T05:06:47;9.13;;;6.50;;
4377;SDS011;2203;53.686;9.994;2023-07-24T05:09:12;10.17;;;7.20;;
4377;SDS011;2203;53.686;9.994;2023-07-24T05:11:38;8.50;;;5.97;;
4377;SDS011;2203;53.686;9.994;2023-07-24T05:14:03;8.33;;;5.93;;
4377;SDS011;2203;53.686;9.994;2023-07-24T05:16:28;12.60;;;6.33;;
4377;SDS011;2203;53.686;9.994;2023-07-24T05:18:54;10.37;;;6.80;;
4377;SDS011;2203;53.686;9.994;2023-07-24T05:21:19;7.80;;;6.10;;
4377;SDS011;2203;53.686;9.994;2023-07-24T05:23:45;9.17;;;6.27;;
4377;SDS011;2203;53.686;9.994;2023-07-24T05:26:10;12.63;;;6.00;;
4377;SDS011;2203;53.686;9.994;2023-07-24T05:28:35;6.80;;;5.67;;
4377;SDS011;2203;53.686;9.994;2023-07-24T05:31:02;25.80;;;8.20;;
4377;SDS011;2203;53.686;9.994;2023-07-24T05:33:28;9.23;;;5.97;;
4377;SDS011;2203;53.686;9.994;2023-07-24T05:35:57;9.67;;;5.90;;
4377;SDS011;2203;53.686;9.994;2023-07-24T05:38:24;11.23;;;5.80;;
4377;SDS011;2203;53.686;9.994;2023-07-24T05:40:56;8.93;;;5.87;;
4377;SDS011;2203;53.686;9.994;2023-07-24T05:43:25;13.30;;;6.13;;
4377;SDS011;2203;53.686;9.994;2023-07-24T05:45:51;13.63;;;7.33;;
4377;SDS011;2203;53.686;9.994;2023-07-24T05:48:17;15.67;;;7.07;;
4377;SDS011;2203;53.686;9.994;2023-07-24T05:50:42;9.80;;;7.20;;
4377;SDS011;2203;53.686;9.994;2023-07-24T05:53:08;9.53;;;6.50;;
4377;SDS011;2203;53.686;9.994;2023-07-24T05:55:33;10.87;;;6.70;;
4377;SDS011;2203;53.686;9.994;2023-07-24T05:57:58;10.80;;;6.77;;
4377;SDS011;2203;53.686;9.994;2023-07-24T06:00:24;12.73;;;7.10;;
4377;SDS011;2203;53.686;9.994;2023-07-24T06:02:49;10.27;;;7.10;;
4377;SDS011;2203;53.686;9.994;2023-07-24T06:05:15;10.30;;;6.17;;
4377;SDS011;2203;53.686;9.994;2023-07-24T06:07:40;15.83;;;7.47;;
4377;SDS011;2203;53.686;9.994;2023-07-24T06:10:06;10.83;;;6.50;;
4377;SDS011;2203;53.686;9.994;2023-07-24T06:12:32;10.13;;;6.63;;
4377;SDS011;2203;53.686;9.994;2023-07-24T06:14:57;10.60;;;6.40;;
4377;SDS011;2203;53.686;9.994;2023-07-24T06:17:22;9.17;;;7.00;;
4377;SDS011;2203;53.686;9.994;2023-07-24T06:19:48;11.03;;;6.70;;
4377;SDS011;2203;53.686;9.994;2023-07-24T06:22:13;9.47;;;6.50;;
4377;SDS011;2203;53.686;9.994;2023-07-24T06:24:39;12.93;;;7.50;;
4377;SDS011;2203;53.686;9.994;2023-07-24T06:27:04;19.53;;;7.07;;
4377;SDS011;2203;53.686;9.994;2023-07-24T06:29:31;11.63;;;7.40;;
4377;SDS011;2203;53.686;9.994;2023-07-24T06:31:57;14.50;;;8.10;;
4377;SDS011;2203;53.686;9.994;2023-07-24T06:34:22;9.30;;;6.40;;
4377;SDS011;2203;53.686;9.994;2023-07-24T06:36:48;10.93;;;6.87;;
4377;SDS011;2203;53.686;9.994;2023-07-24T06:39:13;10.00;;;7.03;;
4377;SDS011;2203;53.686;9.994;2023-07-24T06:41:38;11.17;;;6.47;;
4377;SDS011;2203;53.686;9.994;2023-07-24T06:44:04;11.00;;;7.70;;
4377;SDS011;2203;53.686;9.994;2023-07-24T06:46:29;10.00;;;7.10;;
4377;SDS011;2203;53.686;9.994;2023-07-24T06:48:55;10.00;;;7.13;;
4377;SDS011;2203;53.686;9.994;2023-07-24T06:51:20;14.03;;;7.30;;
4377;SDS011;2203;53.686;9.994;2023-07-24T06:53:45;11.00;;;6.23;;
4377;SDS011;2203;53.686;9.994;2023-07-24T06:56:11;14.50;;;8.27;;
4377;SDS011;2203;53.686;9.994;2023-07-24T06:58:36;8.60;;;6.33;;
4377;SDS011;2203;53.686;9.994;2023-07-24T07:01:05;8.03;;;6.27;;
4377;SDS011;2203;53.686;9.994;2023-07-24T07:03:31;13.40;;;7.13;;
4377;SDS011;2203;53.686;9.994;2023-07-24T07:06:00;7.83;;;6.20;;
4377;SDS011;2203;53.686;9.994;2023-07-24T07:08:26;8.23;;;6.77;;
4377;SDS011;2203;53.686;9.994;2023-07-24T07:10:55;9.30;;;6.40;;
4377;SDS011;2203;53.686;9.994;2023-07-24T07:13:21;9.80;;;7.33;;
4377;SDS011;2203;53.686;9.994;2023-07-24T07:15:47;16.87;;;8.30;;
4377;SDS011;2203;53.686;9.994;2023-07-24T07:18:12;11.53;;;6.23;;
4377;SDS011;2203;53.686;9.994;2023-07-24T07:20:38;16.17;;;7.33;;
4377;SDS011;2203;53.686;9.994;2023-07-24T07:23:03;12.33;;;6.63;;
4377;SDS011;2203;53.686;9.994;2023-07-24T07:25:28;10.07;;;6.53;;
4377;SDS011;2203;53.686;9.994;2023-07-24T07:27:54;8.20;;;5.77;;
4377;SDS011;2203;53.686;9.994;2023-07-24T07:30:19;11.50;;;6.57;;
4377;SDS011;2203;53.686;9.994;2023-07-24T07:32:44;16.00;;;6.63;;
4377;SDS011;2203;53.686;9.994;2023-07-24T07:35:10;11.30;;;6.47;;
4377;SDS011;2203;53.686;9.994;2023-07-24T07:37:35;14.30;;;6.50;;
4377;SDS011;2203;53.686;9.994;2023-07-24T07:40:01;9.53;;;6.50;;
4377;SDS011;2203;53.686;9.994;2023-07-24T07:42:26;8.90;;;6.60;;
4377;SDS011;2203;53.686;9.994;2023-07-24T07:44:51;12.00;;;6.53;;
4377;SDS011;2203;53.686;9.994;2023-07-24T07:47:17;7.93;;;5.87;;
4377;SDS011;2203;53.686;9.994;2023-07-24T07:49:42;10.73;;;6.60;;
4377;SDS011;2203;53.686;9.994;2023-07-24T07:52:08;11.37;;;6.50;;
4377;SDS011;2203;53.686;9.994;2023-07-24T07:54:33;10.60;;;6.87;;
4377;SDS011;2203;53.686;9.994;2023-07-24T07:56:59;8.83;;;6.70;;
4377;SDS011;2203;53.686;9.994;2023-07-24T07:59:24;9.03;;;7.37;;
4377;SDS011;2203;53.686;9.994;2023-07-24T08:01:50;13.13;;;7.10;;
4377;SDS011;2203;53.686;9.994;2023-07-24T08:04:15;10.20;;;5.87;;
4377;SDS011;2203;53.686;9.994;2023-07-24T08:06:42;11.77;;;7.57;;
4377;SDS011;2203;53.686;9.994;2023-07-24T08:09:08;10.77;;;7.10;;
4377;SDS011;2203;53.686;9.994;2023-07-24T08:11:33;9.47;;;7.17;;
4377;SDS011;2203;53.686;9.994;2023-07-24T08:13:58;9.00;;;6.47;;
4377;SDS011;2203;53.686;9.994;2023-07-24T08:16:24;11.53;;;7.37;;
4377;SDS011;2203;53.686;9.994;2023-07-24T08:18:49;8.73;;;7.10;;
4377;SDS011;2203;53.686;9.994;2023-07-24T08:21:15;12.50;;;6.13;;
4377;SDS011;2203;53.686;9.994;2023-07-24T08:23:40;10.00;;;6.70;;
4377;SDS011;2203;53.686;9.994;2023-07-24T08:26:06;9.80;;;6.43;;
4377;SDS011;2203;53.686;9.994;2023-07-24T08:28:32;10.40;;;6.27;;
4377;SDS011;2203;53.686;9.994;2023-07-24T08:30:59;9.63;;;7.00;;
4377;SDS011;2203;53.686;9.994;2023-07-24T08:33:26;11.70;;;6.37;;
4377;SDS011;2203;53.686;9.994;2023-07-24T08:36:01;8.23;;;6.27;;
4377;SDS011;2203;53.686;9.994;2023-07-24T08:38:31;11.70;;;6.43;;
4377;SDS011;2203;53.686;9.994;2023-07-24T08:41:15;9.40;;;6.33;;
4377;SDS011;2203;53.686;9.994;2023-07-24T08:43:41;10.87;;;6.57;;
4377;SDS011;2203;53.686;9.994;2023-07-24T08:46:07;7.23;;;5.80;;
4377;SDS011;2203;53.686;9.994;2023-07-24T08:48:35;7.60;;;6.23;;
4377;SDS011;2203;53.686;9.994;2023-07-24T08:51:09;10.37;;;7.70;;
4377;SDS011;2203;53.686;9.994;2023-07-24T08:53:41;11.77;;;7.63;;
4377;SDS011;2203;53.686;9.994;2023-07-24T08:56:09;10.40;;;6.53;;
4377;SDS011;2203;53.686;9.994;2023-07-24T08:58:35;9.13;;;6.47;;
4377;SDS011;2203;53.686;9.994;2023-07-24T09:01:02;10.47;;;7.63;;
4377;SDS011;2203;53.686;9.994;2023-07-24T09:03:28;10.17;;;7.33;;
4377;SDS011;2203;53.686;9.994;2023-07-24T09:05:55;9.50;;;6.40;;
4377;SDS011;2203;53.686;9.994;2023-07-24T09:08:30;9.90;;;6.87;;
4377;SDS011;2203;53.686;9.994;2023-07-24T09:10:56;8.23;;;6.20;;
4377;SDS011;2203;53.686;9.994;2023-07-24T09:13:22;8.53;;;6.30;;
4377;SDS011;2203;53.686;9.994;2023-07-24T09:15:47;10.00;;;7.30;;
4377;SDS011;2203;53.686;9.994;2023-07-24T09:18:13;9.17;;;6.60;;
4377;SDS011;2203;53.686;9.994;2023-07-24T09:20:41;9.70;;;6.30;;
4377;SDS011;2203;53.686;9.994;2023-07-24T09:23:07;8.60;;;6.57;;
4377;SDS011;2203;53.686;9.994;2023-07-24T09:25:34;11.43;;;7.00;;
4377;SDS011;2203;53.686;9.994;2023-07-24T09:28:00;9.70;;;5.60;;
4377;SDS011;2203;53.686;9.994;2023-07-24T09:30:26;7.13;;;5.33;;
4377;SDS011;2203;53.686;9.994;2023-07-24T09:32:54;8.03;;;5.97;;
4377;SDS011;2203;53.686;9.994;2023-07-24T09:35:20;10.23;;;5.40;;
4377;SDS011;2203;53.686;9.994;2023-07-24T09:37:51;8.70;;;5.87;;
4377;SDS011;2203;53.686;9.994;2023-07-24T09:40:16;8.23;;;6.20;;
4377;SDS011;2203;53.686;9.994;2023-07-24T09:42:41;10.87;;;6.43;;
4377;SDS011;2203;53.686;9.994;2023-07-24T09:45:07;9.43;;;6.20;;
4377;SDS011;2203;53.686;9.994;2023-07-24T09:47:33;9.67;;;5.97;;
4377;SDS011;2203;53.686;9.994;2023-07-24T09:49:59;11.30;;;6.10;;
4377;SDS011;2203;53.686;9.994;2023-07-24T09:52:26;8.43;;;5.90;;
4377;SDS011;2203;53.686;9.994;2023-07-24T09:57:35;7.93;;;5.43;;
4377;SDS011;2203;53.686;9.994;2023-07-24T10:00:01;12.63;;;6.13;;
4377;SDS011;2203;53.686;9.994;2023-07-24T10:02:27;12.40;;;5.47;;
4377;SDS011;2203;53.686;9.994;2023-07-24T10:04:53;11.70;;;5.90;;
4377;SDS011;2203;53.686;9.994;2023-07-24T10:07:19;11.30;;;6.57;;
4377;SDS011;2203;53.686;9.994;2023-07-24T10:09:48;14.27;;;6.70;;
4377;SDS011;2203;53.686;9.994;2023-07-24T10:12:14;8.10;;;6.10;;
4377;SDS011;2203;53.686;9.994;2023-07-24T10:14:42;10.37;;;5.87;;
4377;SDS011;2203;53.686;9.994;2023-07-24T10:17:07;18.47;;;5.77;;
4377;SDS011;2203;53.686;9.994;2023-07-24T10:19:37;9.10;;;5.20;;
4377;SDS011;2203;53.686;9.994;2023-07-24T10:22:04;10.20;;;5.83;;
4377;SDS011;2203;53.686;9.994;2023-07-24T10:24:30;7.80;;;5.10;;
4377;SDS011;2203;53.686;9.994;2023-07-24T10:26:56;7.33;;;4.97;;
4377;SDS011;2203;53.686;9.994;2023-07-24T10:29:23;8.90;;;5.73;;
4377;SDS011;2203;53.686;9.994;2023-07-24T10:31:53;9.57;;;6.13;;
4377;SDS011;2203;53.686;9.994;2023-07-24T10:34:19;10.10;;;5.80;;
4377;SDS011;2203;53.686;9.994;2023-07-24T10:36:45;7.20;;;5.77;;
4377;SDS011;2203;53.686;9.994;2023-07-24T10:39:14;8.33;;;5.90;;
4377;SDS011;2203;53.686;9.994;2023-07-24T10:41:40;9.57;;;6.40;;
4377;SDS011;2203;53.686;9.994;2023-07-24T10:44:06;8.77;;;5.83;;
4377;SDS011;2203;53.686;9.994;2023-07-24T10:46:35;9.27;;;5.93;;
4377;SDS011;2203;53.686;9.994;2023-07-24T10:49:05;14.63;;;5.80;;
4377;SDS011;2203;53.686;9.994;2023-07-24T10:51:31;8.43;;;5.20;;
4377;SDS011;2203;53.686;9.994;2023-07-24T10:54:02;13.47;;;6.60;;
4377;SDS011;2203;53.686;9.994;2023-07-24T10:56:28;6.93;;;5.50;;
4377;SDS011;2203;53.686;9.994;2023-07-24T10:58:54;6.77;;;5.20;;
4377;SDS011;2203;53.686;9.994;2023-07-24T11:01:19;9.00;;;5.50;;
4377;SDS011;2203;53.686;9.994;2023-07-24T11:03:45;10.70;;;4.80;;
4377;SDS011;2203;53.686;9.994;2023-07-24T11:06:18;8.50;;;5.37;;
4377;SDS011;2203;53.686;9.994;2023-07-24T11:08:54;8.40;;;4.53;;
4377;SDS011;2203;53.686;9.994;2023-07-24T11:11:27;7.53;;;5.20;;
4377;SDS011;2203;53.686;9.994;2023-07-24T11:13:56;8.13;;;4.53;;
4377;SDS011;2203;53.686;9.994;2023-07-24T11:16:21;9.37;;;5.93;;
4377;SDS011;2203;53.686;9.994;2023-07-24T11:18:48;11.10;;;4.93;;
4377;SDS011;2203;53.686;9.994;2023-07-24T11:21:14;8.93;;;5.67;;
4377;SDS011;2203;53.686;9.994;2023-07-24T11:23:46;10.50;;;5.00;;
4377;SDS011;2203;53.686;9.994;2023-07-24T11:26:13;5.10;;;4.30;;
4377;SDS011;2203;53.686;9.994;2023-07-24T11:28:39;8.20;;;5.07;;
4377;SDS011;2203;53.686;9.994;2023-07-24T11:31:05;6.63;;;4.90;;
4377;SDS011;2203;53.686;9.994;2023-07-24T11:33:30;7.03;;;5.00;;
4377;SDS011;2203;53.686;9.994;2023-07-24T11:35:56;10.83;;;4.67;;
4377;SDS011;2203;53.686;9.994;2023-07-24T11:38:21;6.97;;;5.07;;
4377;SDS011;2203;53.686;9.994;2023-07-24T11:40:47;8.60;;;4.73;;
4377;SDS011;2203;53.686;9.994;2023-07-24T11:43:19;8.23;;;5.10;;
4377;SDS011;2203;53.686;9.994;2023-07-24T11:45:47;7.47;;;5.27;;
4377;SDS011;2203;53.686;9.994;2023-07-24T11:48:19;11.17;;;5.13;;
4377;SDS011;2203;53.686;9.994;2023-07-24T11:50:46;8.80;;;4.03;;
4377;SDS011;2203;53.686;9.994;2023-07-24T11:53:31;6.60;;;4.60;;
4377;SDS011;2203;53.686;9.994;2023-07-24T11:55:59;11.23;;;4.57;;
4377;SDS011;2203;53.686;9.994;2023-07-24T11:58:27;7.97;;;4.37;;
4377;SDS011;2203;53.686;9.994;2023-07-24T12:00:53;4.43;;;3.90;;
4377;SDS011;2203;53.686;9.994;2023-07-24T12:03:20;6.07;;;4.90;;
4377;SDS011;2203;53.686;9.994;2023-07-24T12:05:54;6.60;;;4.37;;
4377;SDS011;2203;53.686;9.994;2023-07-24T12:08:21;6.20;;;4.57;;
4377;SDS011;2203;53.686;9.994;2023-07-24T12:10:55;5.10;;;4.20;;
4377;SDS011;2203;53.686;9.994;2023-07-24T12:13:20;6.73;;;4.33;;
4377;SDS011;2203;53.686;9.994;2023-07-24T12:15:46;19.60;;;4.70;;
4377;SDS011;2203;53.686;9.994;2023-07-24T12:18:11;8.10;;;4.23;;
4377;SDS011;2203;53.686;9.994;2023-07-24T12:20:36;8.07;;;4.93;;
4377;SDS011;2203;53.686;9.994;2023-07-24T12:23:02;9.63;;;5.20;;
4377;SDS011;2203;53.686;9.994;2023-07-24T12:25:27;11.73;;;4.23;;
4377;SDS011;2203;53.686;9.994;2023-07-24T12:27:53;6.63;;;4.13;;
4377;SDS011;2203;53.686;9.994;2023-07-24T12:30:18;8.00;;;4.57;;
4377;SDS011;2203;53.686;9.994;2023-07-24T12:32:44;10.07;;;4.37;;
4377;SDS011;2203;53.686;9.994;2023-07-24T12:35:10;8.90;;;5.23;;
4377;SDS011;2203;53.686;9.994;2023-07-24T12:37:35;10.00;;;5.13;;
4377;SDS011;2203;53.686;9.994;2023-07-24T12:40:01;12.63;;;4.77;;
4377;SDS011;2203;53.686;9.994;2023-07-24T12:42:27;10.33;;;5.00;;
4377;SDS011;2203;53.686;9.994;2023-07-24T12:44:52;8.50;;;5.20;;
4377;SDS011;2203;53.686;9.994;2023-07-24T12:47:18;5.53;;;3.97;;
4377;SDS011;2203;53.686;9.994;2023-07-24T12:49:43;7.80;;;4.63;;
4377;SDS011;2203;53.686;9.994;2023-07-24T12:52:09;6.40;;;3.87;;
4377;SDS011;2203;53.686;9.994;2023-07-24T12:54:35;5.77;;;3.90;;
4377;SDS011;2203;53.686;9.994;2023-07-24T12:57:01;5.30;;;3.60;;
4377;SDS011;2203;53.686;9.994;2023-07-24T12:59:27;7.40;;;3.43;;
4377;SDS011;2203;53.686;9.994;2023-07-24T13:01:53;11.13;;;3.77;;
4377;SDS011;2203;53.686;9.994;2023-07-24T13:04:18;5.23;;;4.37;;
4377;SDS011;2203;53.686;9.994;2023-07-24T13:06:44;6.20;;;4.60;;
4377;SDS011;2203;53.686;9.994;2023-07-24T13:09:10;7.23;;;4.33;;
4377;SDS011;2203;53.686;9.994;2023-07-24T13:11:35;6.03;;;4.87;;
4377;SDS011;2203;53.686;9.994;2023-07-24T13:14:00;5.80;;;4.77;;
4377;SDS011;2203;53.686;9.994;2023-07-24T13:16:26;5.70;;;4.30;;
4377;SDS011;2203;53.686;9.994;2023-07-24T13:18:52;4.93;;;3.60;;
4377;SDS011;2203;53.686;9.994;2023-07-24T13:21:18;7.20;;;4.10;;
4377;SDS011;2203;53.686;9.994;2023-07-24T13:23:43;6.97;;;4.20;;
4377;SDS011;2203;53.686;9.994;2023-07-24T13:26:09;6.70;;;4.73;;
4377;SDS011;2203;53.686;9.994;2023-07-24T13:28:36;9.20;;;4.17;;
4377;SDS011;2203;53.686;9.994;2023-07-24T13:31:12;8.03;;;4.20;;
4377;SDS011;2203;53.686;9.994;2023-07-24T13:33:41;4.33;;;3.73;;
4377;SDS011;2203;53.686;9.994;2023-07-24T13:36:07;4.40;;;3.77;;
4377;SDS011;2203;53.686;9.994;2023-07-24T13:38:32;5.53;;;4.33;;
4377;SDS011;2203;53.686;9.994;2023-07-24T13:40:58;8.27;;;4.30;;
4377;SDS011;2203;53.686;9.994;2023-07-24T13:43:23;5.93;;;3.57;;
4377;SDS011;2203;53.686;9.994;2023-07-24T13:45:49;6.60;;;3.73;;
4377;SDS011;2203;53.686;9.994;2023-07-24T13:48:14;3.93;;;3.53;;
4377;SDS011;2203;53.686;9.994;2023-07-24T13:50:40;5.77;;;3.67;;
4377;SDS011;2203;53.686;9.994;2023-07-24T13:53:05;5.57;;;3.80;;
4377;SDS011;2203;53.686;9.994;2023-07-24T13:55:31;5.30;;;4.00;;
4377;SDS011;2203;53.686;9.994;2023-07-24T13:57:56;4.90;;;3.83;;
4377;SDS011;2203;53.686;9.994;2023-07-24T14:00:21;4.90;;;4.30;;
4377;SDS011;2203;53.686;9.994;2023-07-24T14:02:47;6.40;;;4.27;;
4377;SDS011;2203;53.686;9.994;2023-07-24T14:05:12;7.20;;;3.93;;
4377;SDS011;2203;53.686;9.994;2023-07-24T14:07:38;4.23;;;3.60;;
4377;SDS011;2203;53.686;9.994;2023-07-24T14:10:03;6.77;;;4.60;;
4377;SDS011;2203;53.686;9.994;2023-07-24T14:12:29;12.93;;;4.43;;
4377;SDS011;2203;53.686;9.994;2023-07-24T14:14:54;6.23;;;5.00;;
4377;SDS011;2203;53.686;9.994;2023-07-24T14:17:20;8.67;;;4.97;;
4377;SDS011;2203;53.686;9.994;2023-07-24T14:19:45;8.53;;;4.00;;
4377;SDS011;2203;53.686;9.994;2023-07-24T14:22:10;5.83;;;4.10;;
4377;SDS011;2203;53.686;9.994;2023-07-24T14:24:36;10.77;;;4.57;;
4377;SDS011;2203;53.686;9.994;2023-07-24T14:27:01;4.37;;;3.97;;
4377;SDS011;2203;53.686;9.994;2023-07-24T14:29:26;6.80;;;4.30;;
4377;SDS011;2203;53.686;9.994;2023-07-24T14:31:52;7.10;;;4.70;;
4377;SDS011;2203;53.686;9.994;2023-07-24T14:34:17;7.70;;;4.63;;
4377;SDS011;2203;53.686;9.994;2023-07-24T14:36:42;5.23;;;4.20;;
4377;SDS011;2203;53.686;9.994;2023-07-24T14:39:08;7.03;;;3.90;;
4377;SDS011;2203;53.686;9.994;2023-07-24T14:41:34;5.83;;;4.60;;
4377;SDS011;2203;53.686;9.994;2023-07-24T14:44:00;6.47;;;4.30;;
4377;SDS011;2203;53.686;9.994;2023-07-24T14:46:25;7.73;;;4.37;;
4377;SDS011;2203;53.686;9.994;2023-07-24T14:48:50;6.83;;;5.73;;
4377;SDS011;2203;53.686;9.994;2023-07-24T14:51:16;6.67;;;5.40;;
4377;SDS011;2203;53.686;9.994;2023-07-24T14:53:41;9.30;;;5.10;;
4377;SDS011;2203;53.686;9.994;2023-07-24T14:56:07;8.80;;;4.87;;
4377;SDS011;2203;53.686;9.994;2023-07-24T14:58:32;6.83;;;4.37;;
4377;SDS011;2203;53.686;9.994;2023-07-24T15:00:58;10.93;;;4.93;;
4377;SDS011;2203;53.686;9.994;2023-07-24T15:03:24;9.30;;;6.07;;
4377;SDS011;2203;53.686;9.994;2023-07-24T15:05:49;8.23;;;5.40;;
4377;SDS011;2203;53.686;9.994;2023-07-24T15:08:15;5.73;;;4.50;;
4377;SDS011;2203;53.686;9.994;2023-07-24T15:10:41;8.73;;;4.63;;
4377;SDS011;2203;53.686;9.994;2023-07-24T15:13:08;8.10;;;5.57;;